Time;durP1;ratioP1;P1;durP2;ratioP2;P2;SDS_P1;SDS_P2;PMS_P1;PMS_P2;Temp;Humidity;BMP_temperature;BMP_pressure;BME280_temperature;BME280_humidity;BME280_pressure;Samples;Min_cycle;Max_cycle;Signal;HPM_P1;HPM_P2
2022/07/14 00:02:17;;;;;;;8.48;2.03;;;16.50;99.90;;;;;;5070926;28;20123;-50
2022/07/14 00:04:43;;;;;;;11.27;2.20;;;16.40;99.90;;;;;;5071125;28;20686;-52
2022/07/14 00:07:08;;;;;;;8.63;2.10;;;16.40;99.90;;;;;;5071418;28;20139;-50
2022/07/14 00:09:34;;;;;;;9.88;2.28;;;16.30;99.90;;;;;;5070862;28;20094;-50
2022/07/14 00:12:00;;;;;;;11.32;2.58;;;16.30;99.90;;;;;;5071133;28;20032;-50
2022/07/14 00:14:25;;;;;;;11.40;2.33;;;16.20;99.90;;;;;;5051788;28;20037;-49
2022/07/14 00:16:51;;;;;;;8.70;2.20;;;16.30;99.90;;;;;;5053159;28;20513;-52
2022/07/14 00:19:17;;;;;;;10.95;2.33;;;16.20;99.90;;;;;;5071120;28;20392;-50
2022/07/14 00:21:43;;;;;;;10.15;2.05;;;16.30;99.90;;;;;;5069735;28;20045;-50
2022/07/14 00:24:11;;;;;;;8.18;1.60;;;16.30;99.90;;;;;;5070924;28;20044;-53
2022/07/14 00:26:41;;;;;;;11.25;1.77;;;16.20;99.90;;;;;;5053073;28;20432;-53
2022/07/14 00:29:07;;;;;;;6.63;1.63;;;16.20;99.90;;;;;;5071139;28;20436;-50
2022/07/14 00:31:33;;;;;;;7.15;1.50;;;16.20;99.90;;;;;;5071016;28;20036;-50
2022/07/14 00:34:00;;;;;;;9.07;2.30;;;16.20;99.90;;;;;;5052553;28;20701;-50
2022/07/14 00:36:27;;;;;;;10.15;2.35;;;16.20;99.90;;;;;;5069413;28;20130;-53
2022/07/14 00:38:56;;;;;;;9.18;2.17;;;16.30;99.90;;;;;;5068831;28;20098;-50
2022/07/14 00:41:23;;;;;;;7.70;1.83;;;16.20;99.90;;;;;;5068616;28;20079;-53
2022/07/14 00:43:49;;;;;;;8.55;1.90;;;16.40;99.90;;;;;;5067695;28;20125;-51
2022/07/14 00:46:15;;;;;;;8.18;2.00;;;16.10;99.90;;;;;;5068495;28;20052;-50
2022/07/14 00:48:40;;;;;;;8.45;2.10;;;16.00;99.90;;;;;;5068812;28;20097;-52
2022/07/14 00:51:07;;;;;;;7.90;1.90;;;15.90;99.90;;;;;;5049522;28;20072;-52
2022/07/14 00:53:32;;;;;;;8.00;2.20;;;15.90;99.90;;;;;;5052356;28;20041;-49
2022/07/14 00:55:58;;;;;;;9.15;2.28;;;15.90;99.90;;;;;;5055503;28;20024;-50
2022/07/14 00:58:24;;;;;;;9.88;2.08;;;15.70;99.90;;;;;;5055238;28;20062;-50
2022/07/14 01:00:50;;;;;;;6.82;2.03;;;15.60;99.90;;;;;;5071476;28;20123;-52
2022/07/14 01:03:16;;;;;;;10.00;2.13;;;15.60;99.90;;;;;;5056318;28;20040;-50
2022/07/14 01:05:42;;;;;;;11.00;2.60;;;15.50;99.90;;;;;;5072032;28;20028;-51
2022/07/14 01:08:08;;;;;;;9.07;2.58;;;15.50;99.90;;;;;;5071900;28;20079;-51
2022/07/14 01:10:33;;;;;;;7.88;2.50;;;15.50;99.90;;;;;;5072988;28;20097;-51
2022/07/14 01:13:01;;;;;;;10.65;2.50;;;15.40;99.90;;;;;;5072962;28;20043;-52
2022/07/14 01:15:27;;;;;;;8.48;2.33;;;15.60;99.90;;;;;;5072760;28;20035;-50
2022/07/14 01:17:53;;;;;;;7.82;2.40;;;15.60;99.90;;;;;;5073523;28;20040;-52
2022/07/14 01:20:19;;;;;;;6.70;2.05;;;15.50;99.90;;;;;;5071039;28;20040;-51
2022/07/14 01:22:48;;;;;;;10.18;2.45;;;15.50;99.90;;;;;;5071901;28;20036;-49
2022/07/14 01:25:16;;;;;;;11.35;2.72;;;15.40;99.90;;;;;;5071906;28;20115;-51
2022/07/14 01:27:42;;;;;;;9.65;2.60;;;15.40;99.90;;;;;;5072341;28;20444;-49
2022/07/14 01:30:09;;;;;;;13.45;2.58;;;15.60;99.90;;;;;;5072446;28;20387;-51
2022/07/14 01:32:34;;;;;;;9.27;2.47;;;15.60;99.90;;;;;;5053879;28;20075;-52
2022/07/14 01:35:01;;;;;;;8.43;2.70;;;15.40;99.90;;;;;;5072554;28;20068;-48
2022/07/14 01:37:27;;;;;;;10.40;2.70;;;15.40;99.90;;;;;;5072169;28;20041;-51
2022/07/14 01:39:53;;;;;;;8.20;2.13;;;15.40;99.90;;;;;;5072492;28;20391;-51
2022/07/14 01:42:19;;;;;;;7.85;2.40;;;15.40;99.90;;;;;;5072444;28;20052;-48
2022/07/14 01:44:45;;;;;;;8.95;2.70;;;15.50;99.90;;;;;;5073585;28;20040;-51
2022/07/14 01:47:10;;;;;;;9.20;2.47;;;15.50;99.90;;;;;;5073317;28;20056;-50
2022/07/14 01:49:37;;;;;;;7.22;2.20;;;15.50;99.90;;;;;;5073323;28;20044;-50
2022/07/14 01:52:03;;;;;;;4.82;1.45;;;15.50;99.90;;;;;;5071584;28;20514;-51
2022/07/14 01:54:29;;;;;;;3.85;1.33;;;15.30;99.90;;;;;;5073406;28;20063;-50
2022/07/14 01:56:55;;;;;;;3.80;1.30;;;15.10;99.90;;;;;;5073044;28;20041;-50
2022/07/14 01:59:21;;;;;;;3.83;1.40;;;15.00;99.90;;;;;;5038300;28;20090;-53
2022/07/14 02:01:47;;;;;;;5.70;1.52;;;14.90;99.90;;;;;;5072826;28;20446;-51
2022/07/14 02:04:14;;;;;;;6.47;1.67;;;14.90;99.90;;;;;;5072407;28;20041;-51
2022/07/14 02:06:51;;;;;;;6.45;2.03;;;14.80;99.90;;;;;;5073065;28;20127;-51
2022/07/14 02:09:19;;;;;;;7.95;2.58;;;14.80;99.90;;;;;;5072706;28;20028;-51
2022/07/14 02:12:27;;;;;;;10.20;2.85;;;14.80;99.90;;;;;;5072653;28;20040;-52
2022/07/14 02:14:34;;;;;;;11.48;2.78;;;14.80;99.90;;;;;;5063662;28;20045;-52
2022/07/14 02:17:00;;;;;;;10.68;2.75;;;14.80;99.90;;;;;;5072783;28;20506;-51
2022/07/14 02:19:26;;;;;;;8.13;3.00;;;14.80;99.90;;;;;;5072932;28;20025;-52
2022/07/14 02:21:54;;;;;;;9.90;2.70;;;14.80;99.90;;;;;;5072995;28;20040;-52
2022/07/14 02:24:21;;;;;;;6.68;2.53;;;14.80;99.90;;;;;;5072858;28;20067;-51
2022/07/14 02:26:50;;;;;;;8.68;2.50;;;14.80;99.90;;;;;;5072990;28;20629;-49
2022/07/14 02:29:16;;;;;;;5.97;2.30;;;14.80;99.90;;;;;;5073022;28;20063;-52
2022/07/14 02:31:42;;;;;;;8.73;2.22;;;14.70;99.90;;;;;;5072772;28;20033;-52
2022/07/14 02:34:08;;;;;;;8.43;2.53;;;14.60;99.90;;;;;;5072395;28;20475;-53
2022/07/14 02:36:34;;;;;;;8.40;2.70;;;14.60;99.90;;;;;;5072692;28;20047;-51
2022/07/14 02:38:59;;;;;;;9.25;2.95;;;14.60;99.90;;;;;;5054854;28;20041;-50
2022/07/14 02:41:25;;;;;;;8.98;2.70;;;14.60;99.90;;;;;;5052442;28;20037;-53
2022/07/14 02:43:51;;;;;;;8.93;3.10;;;14.50;99.90;;;;;;5072238;28;20049;-52
2022/07/14 02:46:16;;;;;;;9.32;2.90;;;14.60;99.90;;;;;;5071185;28;20434;-51
2022/07/14 02:48:42;;;;;;;11.52;2.90;;;14.50;99.90;;;;;;5054388;28;20044;-52
2022/07/14 02:51:09;;;;;;;10.80;3.15;;;14.50;99.90;;;;;;5072244;28;20041;-52
2022/07/14 02:53:36;;;;;;;10.18;3.58;;;14.50;99.90;;;;;;5071996;28;20163;-50
2022/07/14 02:56:02;;;;;;;7.82;3.05;;;14.50;99.90;;;;;;5072128;28;20086;-51
2022/07/14 02:58:29;;;;;;;10.73;3.20;;;14.40;99.90;;;;;;5054080;28;20044;-52
2022/07/14 03:00:55;;;;;;;8.80;3.25;;;14.40;99.90;;;;;;5072136;28;20032;-51
2022/07/14 03:03:21;;;;;;;8.88;3.10;;;14.40;99.90;;;;;;5071943;28;20042;-51
2022/07/14 03:05:48;;;;;;;10.73;3.60;;;14.40;99.90;;;;;;5071685;28;20040;-52
2022/07/14 03:08:14;;;;;;;8.57;3.20;;;14.30;99.90;;;;;;5072000;28;20082;-52
2022/07/14 03:10:40;;;;;;;6.78;2.80;;;14.30;99.90;;;;;;5072016;28;20036;-50
2022/07/14 03:13:06;;;;;;;6.72;3.00;;;14.10;99.90;;;;;;5071688;28;20040;-51
2022/07/14 03:15:32;;;;;;;8.98;2.80;;;14.10;99.90;;;;;;5071659;28;20039;-47
2022/07/14 03:17:58;;;;;;;7.05;2.65;;;14.10;99.90;;;;;;5071597;28;20048;-51
2022/07/14 03:20:24;;;;;;;6.53;2.63;;;14.00;99.90;;;;;;5072043;28;20033;-48
2022/07/14 03:22:50;;;;;;;4.85;2.25;;;14.00;99.90;;;;;;5071793;28;20040;-51
2022/07/14 03:25:16;;;;;;;9.15;2.58;;;14.10;99.90;;;;;;5070400;28;20124;-50
2022/07/14 03:27:41;;;;;;;7.93;2.45;;;14.10;99.90;;;;;;5053759;28;20403;-52
2022/07/14 03:30:08;;;;;;;5.38;2.30;;;14.10;99.90;;;;;;5071326;28;20045;-53
2022/07/14 03:32:34;;;;;;;5.97;2.15;;;14.00;99.90;;;;;;5071054;28;20036;-52
2022/07/14 03:35:03;;;;;;;5.93;2.40;;;14.00;99.90;;;;;;5071434;28;20109;-50
2022/07/14 03:37:29;;;;;;;7.32;2.63;;;14.00;99.90;;;;;;5071636;28;20527;-50
2022/07/14 03:39:55;;;;;;;7.45;2.30;;;14.00;99.90;;;;;;5071250;28;20047;-50
2022/07/14 03:42:21;;;;;;;5.32;1.77;;;14.00;99.90;;;;;;5071351;28;20115;-50
2022/07/14 03:44:48;;;;;;;5.53;1.92;;;14.00;99.90;;;;;;5070888;28;20047;-53
2022/07/14 03:47:14;;;;;;;4.15;1.35;;;14.00;99.90;;;;;;5071510;28;20412;-53
2022/07/14 03:49:41;;;;;;;3.75;1.38;;;13.90;99.90;;;;;;5071168;28;20035;-52
2022/07/14 03:52:07;;;;;;;4.80;1.52;;;13.80;99.90;;;;;;5071246;28;20032;-51
2022/07/14 03:54:32;;;;;;;2.67;1.20;;;13.80;99.90;;;;;;5071021;28;20043;-48
2022/07/14 03:56:58;;;;;;;3.33;1.02;;;13.80;99.90;;;;;;5071413;28;20090;-52
2022/07/14 03:59:24;;;;;;;2.00;1.05;;;13.70;99.90;;;;;;5070894;28;20392;-50
2022/07/14 04:01:50;;;;;;;2.90;1.30;;;13.70;99.90;;;;;;5071155;28;20071;-48
2022/07/14 04:04:15;;;;;;;3.10;1.30;;;13.60;99.90;;;;;;5070956;28;20043;-52
2022/07/14 04:06:41;;;;;;;4.03;1.45;;;13.60;99.90;;;;;;5071081;28;20036;-50
2022/07/14 04:09:06;;;;;;;3.65;1.55;;;13.60;99.90;;;;;;5070987;28;20055;-50
2022/07/14 04:11:32;;;;;;;3.13;1.52;;;13.60;99.90;;;;;;5070996;28;20119;-51
2022/07/14 04:13:58;;;;;;;2.80;1.25;;;13.70;99.90;;;;;;5071138;28;20036;-50
2022/07/14 04:16:24;;;;;;;5.00;1.52;;;13.80;99.90;;;;;;5070407;28;20653;-52
2022/07/14 04:18:50;;;;;;;5.57;1.90;;;13.70;99.90;;;;;;5071139;28;20104;-50
2022/07/14 04:21:15;;;;;;;5.95;1.98;;;13.70;99.90;;;;;;5071237;28;20036;-51
2022/07/14 04:23:41;;;;;;;5.13;2.03;;;13.70;99.90;;;;;;5070977;28;20182;-51
2022/07/14 04:26:07;;;;;;;8.52;2.20;;;13.80;99.90;;;;;;5053131;28;20048;-52
2022/07/14 04:28:33;;;;;;;5.65;2.03;;;13.90;99.90;;;;;;5075294;28;20028;-51
2022/07/14 04:30:59;;;;;;;5.38;2.30;;;14.00;99.90;;;;;;5077466;28;20033;-50
2022/07/14 04:33:24;;;;;;;7.25;2.53;;;14.00;99.90;;;;;;5076899;28;20029;-51
2022/07/14 04:35:50;;;;;;;5.43;2.40;;;14.00;99.90;;;;;;5077351;28;20043;-49
2022/07/14 04:38:16;;;;;;;6.63;2.30;;;14.00;99.90;;;;;;5076843;28;20080;-51
2022/07/14 04:40:52;;;;;;;7.22;2.47;;;14.10;99.90;;;;;;5077720;28;20471;-50
2022/07/14 04:43:19;;;;;;;6.18;2.10;;;14.10;99.90;;;;;;5077353;28;20369;-53
2022/07/14 04:45:48;;;;;;;8.20;2.60;;;14.20;99.90;;;;;;5077681;28;20548;-49
2022/07/14 04:48:14;;;;;;;8.75;2.83;;;14.30;99.90;;;;;;5076006;28;20051;-52
2022/07/14 04:53:24;;;;;;;6.85;2.03;;;14.30;99.90;;;;;;5077322;28;20043;-54
2022/07/14 04:55:49;;;;;;;6.50;2.42;;;14.40;99.90;;;;;;5077562;28;20045;-50
2022/07/14 04:58:16;;;;;;;6.78;2.38;;;14.50;99.90;;;;;;5076756;28;20182;-51
2022/07/14 05:00:42;;;;;;;7.85;2.58;;;14.60;99.90;;;;;;5077290;28;20178;-52
2022/07/14 05:03:07;;;;;;;8.30;2.38;;;14.70;99.90;;;;;;5076977;28;20058;-49
2022/07/14 05:05:33;;;;;;;5.68;2.28;;;14.70;99.90;;;;;;5076989;28;20417;-51
2022/07/14 05:07:59;;;;;;;6.45;2.10;;;14.70;99.90;;;;;;5077262;28;20102;-50
2022/07/14 05:10:25;;;;;;;7.90;2.58;;;14.80;99.90;;;;;;5076920;28;20051;-52
2022/07/14 05:12:50;;;;;;;5.57;2.40;;;14.80;99.90;;;;;;5076864;28;20036;-50
2022/07/14 05:15:16;;;;;;;6.40;2.20;;;14.80;99.90;;;;;;5077012;28;20471;-52
2022/07/14 05:17:43;;;;;;;5.55;1.90;;;14.80;99.90;;;;;;5076777;28;20029;-50
2022/07/14 05:20:09;;;;;;;5.43;2.00;;;14.80;99.90;;;;;;5077279;28;20050;-50
2022/07/14 05:22:40;;;;;;;9.68;2.42;;;14.70;99.90;;;;;;5076972;28;20032;-50
2022/07/14 05:25:11;;;;;;;6.40;2.10;;;14.70;99.90;;;;;;5058964;28;20044;-51
2022/07/14 05:27:38;;;;;;;4.68;2.00;;;14.70;99.90;;;;;;5077244;28;20123;-48
2022/07/14 05:30:08;;;;;;;6.20;2.10;;;14.70;99.90;;;;;;5077101;28;20048;-50
2022/07/14 05:32:35;;;;;;;6.20;2.30;;;14.80;99.90;;;;;;5076509;28;20071;-52
2022/07/14 05:35:02;;;;;;;5.38;2.50;;;14.80;99.90;;;;;;5058633;28;20036;-49
2022/07/14 05:37:28;;;;;;;7.30;3.08;;;14.90;99.90;;;;;;5077037;28;20119;-50
2022/07/14 05:39:54;;;;;;;6.88;2.40;;;15.10;99.90;;;;;;5074487;28;20127;-52
2022/07/14 05:42:20;;;;;;;8.88;2.60;;;15.10;99.90;;;;;;5073969;28;20040;-51
2022/07/14 05:44:46;;;;;;;7.82;2.65;;;15.20;99.90;;;;;;5073552;28;20041;-51
2022/07/14 05:47:12;;;;;;;12.73;2.75;;;15.30;99.90;;;;;;5073655;28;20525;-53
2022/07/14 05:49:41;;;;;;;10.68;2.78;;;15.40;99.90;;;;;;5073398;28;20047;-51
2022/07/14 05:52:10;;;;;;;11.50;2.55;;;15.40;99.90;;;;;;5073208;28;20028;-53
2022/07/14 05:54:36;;;;;;;11.20;2.78;;;15.40;99.90;;;;;;5073367;28;20040;-51
2022/07/14 05:57:02;;;;;;;7.22;2.55;;;15.50;99.90;;;;;;5073479;28;20062;-50
2022/07/14 05:59:27;;;;;;;7.10;2.40;;;15.60;99.90;;;;;;5073092;28;20044;-48
2022/07/14 06:01:53;;;;;;;6.88;2.40;;;15.60;99.90;;;;;;5073512;28;20435;-51
2022/07/14 06:04:19;;;;;;;9.80;2.67;;;15.60;99.90;;;;;;5072787;28;20393;-51
2022/07/14 06:06:46;;;;;;;10.25;3.00;;;15.70;99.90;;;;;;5073344;28;20392;-52
2022/07/14 06:09:12;;;;;;;14.80;2.50;;;15.70;99.90;;;;;;5068891;28;20044;-49
2022/07/14 06:11:40;;;;;;;9.63;2.75;;;15.70;99.90;;;;;;5072169;28;20044;-52
2022/07/14 06:14:07;;;;;;;8.82;2.70;;;15.70;99.90;;;;;;5073020;28;20040;-50
2022/07/14 06:16:33;;;;;;;8.23;1.90;;;15.90;99.90;;;;;;5053956;28;20036;-53
2022/07/14 06:18:59;;;;;;;9.27;2.60;;;15.90;99.90;;;;;;5063696;28;20361;-52
2022/07/14 06:21:25;;;;;;;12.73;2.83;;;15.90;99.90;;;;;;5062822;28;20098;-51
2022/07/14 06:23:50;;;;;;;7.45;1.95;;;15.90;99.90;;;;;;5052582;28;20132;-51
2022/07/14 06:26:16;;;;;;;6.15;1.80;;;15.90;99.90;;;;;;5061229;28;20032;-51
2022/07/14 06:28:42;;;;;;;8.27;2.50;;;15.90;99.90;;;;;;5062627;28;20040;-52
2022/07/14 06:31:08;;;;;;;10.50;2.70;;;16.00;99.90;;;;;;5064782;28;20041;-54
2022/07/14 06:33:34;;;;;;;8.75;1.80;;;16.10;99.90;;;;;;5063965;28;20037;-52
2022/07/14 06:36:00;;;;;;;5.38;1.65;;;16.20;99.90;;;;;;5064666;28;20029;-48
2022/07/14 06:38:26;;;;;;;9.68;1.52;;;16.30;99.90;;;;;;5064906;28;20468;-52
2022/07/14 06:40:52;;;;;;;10.07;2.40;;;16.30;99.90;;;;;;5061117;28;20055;-52
2022/07/14 06:43:17;;;;;;;7.82;1.55;;;16.30;99.90;;;;;;5063378;28;20044;-49
2022/07/14 06:45:43;;;;;;;8.45;2.00;;;16.30;99.90;;;;;;5064867;28;20048;-54
2022/07/14 06:48:09;;;;;;;7.03;1.63;;;16.30;99.90;;;;;;5064872;28;20064;-54
2022/07/14 06:50:35;;;;;;;12.80;2.22;;;16.30;99.90;;;;;;5063494;28;20123;-54
2022/07/14 06:53:01;;;;;;;6.80;1.30;;;16.40;99.90;;;;;;5064031;28;20036;-49
2022/07/14 06:55:27;;;;;;;10.02;1.60;;;16.40;99.90;;;;;;5047822;28;20033;-54
2022/07/14 06:57:52;;;;;;;8.02;1.25;;;16.40;99.90;;;;;;5063747;28;20142;-52
2022/07/14 07:00:18;;;;;;;9.93;1.33;;;16.40;99.90;;;;;;5063841;28;20053;-51
2022/07/14 07:02:44;;;;;;;9.25;1.70;;;16.60;99.90;;;;;;5063041;28;20041;-54
2022/07/14 07:08:01;;;;;;;8.02;1.60;;;16.50;99.90;;;;;;5063235;28;20040;-55
2022/07/14 07:10:27;;;;;;;6.43;1.50;;;16.60;99.90;;;;;;5062984;28;20041;-52
2022/07/14 07:12:54;;;;;;;8.05;1.63;;;16.70;99.90;;;;;;5062379;28;20032;-49
2022/07/14 07:15:20;;;;;;;8.90;1.80;;;16.80;99.90;;;;;;5063547;28;20040;-52
2022/07/14 07:17:46;;;;;;;7.90;1.95;;;16.90;99.90;;;;;;5063379;28;20036;-53
2022/07/14 07:20:12;;;;;;;8.32;2.00;;;16.90;99.90;;;;;;5062910;28;21426;-51
2022/07/14 07:22:38;;;;;;;7.45;1.70;;;16.90;99.90;;;;;;5062533;28;20085;-52
2022/07/14 07:25:07;;;;;;;7.18;2.30;;;17.10;99.90;;;;;;5062546;28;20504;-51
2022/07/14 07:27:33;;;;;;;7.68;2.08;;;17.20;99.90;;;;;;5063733;28;20033;-51
2022/07/14 07:30:00;;;;;;;8.45;1.80;;;17.30;99.90;;;;;;5063206;28;20037;-52
2022/07/14 07:32:29;;;;;;;6.93;1.95;;;17.30;99.90;;;;;;5063043;28;20491;-53
2022/07/14 07:34:54;;;;;;;6.85;1.80;;;17.40;99.90;;;;;;5063223;28;20024;-50
2022/07/14 07:37:21;;;;;;;6.90;2.00;;;17.40;99.90;;;;;;5063215;28;20040;-53
2022/07/14 07:39:47;;;;;;;8.25;2.40;;;17.50;99.90;;;;;;5063453;28;20044;-53
2022/07/14 07:42:13;;;;;;;6.65;1.95;;;17.60;99.90;;;;;;5063348;28;20029;-54
2022/07/14 07:44:39;;;;;;;8.38;2.50;;;17.60;99.90;;;;;;5063090;28;20105;-52
2022/07/14 07:47:05;;;;;;;7.03;1.73;;;17.60;99.90;;;;;;5063594;28;20040;-55
2022/07/14 07:49:31;;;;;;;9.60;2.53;;;17.60;99.90;;;;;;5062722;28;20503;-53
2022/07/14 07:52:01;;;;;;;8.68;2.35;;;17.60;99.90;;;;;;5062799;28;20506;-54
2022/07/14 07:54:28;;;;;;;8.13;2.15;;;17.60;99.90;;;;;;5063025;28;20041;-55
2022/07/14 07:56:54;;;;;;;8.02;2.28;;;17.50;99.90;;;;;;5062608;28;20525;-53
2022/07/14 07:59:20;;;;;;;10.70;2.88;;;17.40;99.90;;;;;;5061893;28;20071;-53
2022/07/14 08:01:46;;;;;;;9.40;2.35;;;17.60;99.90;;;;;;5043586;28;20037;-53
2022/07/14 08:04:14;;;;;;;10.52;2.40;;;17.70;99.90;;;;;;5057432;28;20040;-49
2022/07/14 08:06:40;;;;;;;9.18;3.05;;;17.70;99.90;;;;;;5046439;28;20086;-53
2022/07/14 08:09:10;;;;;;;9.98;2.75;;;17.60;99.90;;;;;;5062952;28;20070;-51
2022/07/14 08:11:36;;;;;;;7.00;2.65;;;17.70;99.90;;;;;;5061940;28;20095;-50
2022/07/14 08:14:02;;;;;;;11.27;3.28;;;17.80;99.90;;;;;;5056317;28;20032;-54
2022/07/14 08:16:27;;;;;;;12.32;4.40;;;17.90;99.90;;;;;;5054377;28;20032;-56
2022/07/14 08:18:53;;;;;;;10.18;3.28;;;18.00;99.90;;;;;;5059121;28;20025;-54
2022/07/14 08:21:19;;;;;;;8.70;3.13;;;18.20;99.90;;;;;;5060840;28;20055;-51
2022/07/14 08:23:45;;;;;;;10.90;3.20;;;18.20;99.90;;;;;;5061286;28;20033;-50
2022/07/14 08:26:10;;;;;;;13.45;4.05;;;18.20;99.90;;;;;;5044225;28;20048;-50
2022/07/14 08:28:36;;;;;;;10.02;3.58;;;18.20;99.90;;;;;;5061344;28;20044;-53
2022/07/14 08:31:02;;;;;;;12.77;4.28;;;18.20;99.90;;;;;;5061463;28;20127;-53
2022/07/14 08:33:28;;;;;;;8.73;3.30;;;18.20;99.90;;;;;;5061442;28;20116;-50
2022/07/14 08:35:53;;;;;;;8.88;2.85;;;18.30;99.90;;;;;;5061472;28;20040;-53
2022/07/14 08:38:20;;;;;;;8.65;2.65;;;18.40;99.90;;;;;;5061643;28;20065;-52
2022/07/14 08:40:45;;;;;;;7.10;2.25;;;18.50;99.90;;;;;;5060898;28;20119;-52
2022/07/14 08:43:13;;;;;;;8.13;1.75;;;18.60;99.90;;;;;;5061178;28;20185;-52
2022/07/14 08:45:42;;;;;;;7.68;1.73;;;18.50;99.90;;;;;;5059742;28;20044;-56
2022/07/14 08:48:09;;;;;;;6.00;1.42;;;18.50;99.90;;;;;;5059750;28;20138;-54
2022/07/14 08:50:35;;;;;;;3.67;1.00;;;18.40;99.90;;;;;;5059969;28;20067;-52
2022/07/14 08:53:04;;;;;;;4.07;0.80;;;18.40;99.90;;;;;;5056539;28;20040;-52
2022/07/14 08:55:30;;;;;;;5.45;1.35;;;18.50;99.90;;;;;;5059155;28;20032;-56
2022/07/14 08:57:57;;;;;;;5.57;0.93;;;18.70;99.90;;;;;;5055966;28;20052;-55
2022/07/14 09:00:23;;;;;;;6.85;0.80;;;19.00;99.90;;;;;;5056967;28;20118;-53
2022/07/14 09:02:51;;;;;;;3.13;0.60;;;19.10;99.90;;;;;;5059688;28;20040;-54
2022/07/14 09:05:17;;;;;;;5.10;0.80;;;19.20;99.90;;;;;;5059097;28;20074;-53
2022/07/14 09:07:43;;;;;;;3.60;0.77;;;19.70;99.90;;;;;;5059320;28;20043;-54
2022/07/14 09:10:14;;;;;;;3.08;0.88;;;20.00;99.90;;;;;;5057697;28;20722;-54
2022/07/14 09:12:41;;;;;;;3.25;0.77;;;20.10;99.90;;;;;;5046197;28;20094;-52
2022/07/14 09:17:57;;;;;;;4.35;0.73;;;20.00;99.90;;;;;;5064863;28;20047;-51
2022/07/14 09:20:25;;;;;;;4.97;0.80;;;20.40;99.90;;;;;;5066356;28;20036;-54
2022/07/14 09:22:59;;;;;;;4.28;0.80;;;20.50;99.90;;;;;;5066524;28;20036;-51
2022/07/14 09:25:27;;;;;;;3.88;0.60;;;20.70;99.90;;;;;;5065814;28;20055;-54
2022/07/14 09:27:53;;;;;;;3.97;0.80;;;20.70;99.90;;;;;;5065917;28;20115;-51
2022/07/14 09:30:20;;;;;;;3.15;0.70;;;20.90;99.90;;;;;;5065012;28;20040;-53
2022/07/14 09:33:18;;;;;;;2.78;0.63;;;20.40;99.90;;;;;;5066009;28;20563;-49
2022/07/14 09:35:45;;;;;;;2.42;0.45;;;20.70;99.90;;;;;;5031672;28;20044;-54
2022/07/14 09:38:19;;;;;;;3.95;1.05;;;20.70;99.90;;;;;;5064822;28;20043;-53
2022/07/14 09:40:47;;;;;;;4.00;0.70;;;20.60;99.90;;;;;;5064639;28;20498;-54
2022/07/14 09:43:16;;;;;;;3.63;0.73;;;20.60;99.90;;;;;;5064621;28;20120;-53
2022/07/14 09:45:51;;;;;;;2.80;0.63;;;20.60;99.90;;;;;;5064232;28;20052;-54
2022/07/14 09:48:21;;;;;;;2.00;0.55;;;20.60;99.90;;;;;;5048173;28;20036;-50
2022/07/14 09:50:50;;;;;;;3.15;0.60;;;20.70;99.90;;;;;;5065780;28;20657;-54
2022/07/14 09:53:22;;;;;;;2.95;0.88;;;20.90;99.90;;;;;;5065112;28;20032;-53
2022/07/14 09:55:54;;;;;;;5.10;0.77;;;21.00;99.90;;;;;;5063791;28;20036;-53
2022/07/14 09:58:25;;;;;;;2.60;0.60;;;20.80;99.90;;;;;;5065638;28;20043;-52
2022/07/14 10:00:56;;;;;;;3.72;0.60;;;20.90;99.90;;;;;;5065333;28;20044;-54
2022/07/14 10:03:23;;;;;;;3.53;0.80;;;20.90;99.90;;;;;;5064489;28;20047;-53
2022/07/14 10:05:53;;;;;;;4.88;1.00;;;20.90;99.90;;;;;;5064352;28;20032;-53
2022/07/14 10:08:22;;;;;;;3.42;0.70;;;20.70;99.90;;;;;;5064718;28;20047;-51
2022/07/14 10:10:49;;;;;;;6.40;1.20;;;20.60;99.90;;;;;;5065110;28;20071;-51
2022/07/14 10:13:17;;;;;;;3.63;0.65;;;20.70;99.90;;;;;;5064335;28;20111;-52
2022/07/14 10:15:43;;;;;;;1.55;0.40;;;20.80;99.90;;;;;;5064558;28;20032;-50
2022/07/14 10:18:09;;;;;;;3.60;0.57;;;20.80;99.90;;;;;;5065092;28;20037;-53
2022/07/14 10:20:36;;;;;;;4.47;0.75;;;20.60;99.90;;;;;;5064574;28;20494;-54
2022/07/14 10:23:02;;;;;;;2.80;0.55;;;20.60;99.90;;;;;;5064697;28;20059;-53
2022/07/14 10:25:28;;;;;;;2.63;0.60;;;20.60;99.90;;;;;;5064412;28;20028;-55
2022/07/14 10:27:55;;;;;;;2.72;0.50;;;20.60;99.90;;;;;;5065260;28;20539;-51
2022/07/14 10:30:34;;;;;;;3.75;0.52;;;20.60;99.90;;;;;;5064588;28;20060;-52
2022/07/14 10:33:02;;;;;;;4.13;0.65;;;20.70;99.90;;;;;;5064155;28;20499;-51
2022/07/14 10:36:03;;;;;;;3.63;0.63;;;20.60;99.90;;;;;;5064629;28;20135;-53
2022/07/14 10:38:43;;;;;;;2.03;0.47;;;20.70;99.90;;;;;;5030492;28;20056;-52
2022/07/14 10:41:25;;;;;;;4.47;0.50;;;20.70;99.90;;;;;;5062619;28;20102;-54
2022/07/14 10:44:03;;;;;;;3.22;0.50;;;20.80;99.90;;;;;;5081124;28;20044;-54
2022/07/14 10:46:40;;;;;;;2.95;0.60;;;20.90;99.90;;;;;;5063326;28;20039;-50
2022/07/14 10:49:08;;;;;;;5.35;0.57;;;20.90;99.90;;;;;;5064882;28;20047;-55
2022/07/14 10:51:42;;;;;;;3.38;0.68;;;20.80;99.90;;;;;;5063744;28;20497;-54
2022/07/14 10:54:29;;;;;;;4.68;0.70;;;21.00;99.90;;;;;;5064446;28;20025;-52
2022/07/14 10:57:17;;;;;;;2.22;0.40;;;20.90;99.90;;;;;;5063103;28;20036;-53
2022/07/14 10:59:51;;;;;;;4.00;0.60;;;21.00;99.90;;;;;;5064700;28;20471;-52
2022/07/14 11:02:18;;;;;;;3.22;0.70;;;20.80;99.90;;;;;;5064760;28;20045;-53
2022/07/14 11:04:59;;;;;;;2.92;0.50;;;20.90;99.90;;;;;;5063796;28;20094;-53
2022/07/14 11:07:48;;;;;;;2.17;0.50;;;20.80;99.90;;;;;;5059651;28;20040;-52
2022/07/14 11:10:19;;;;;;;4.05;0.68;;;20.90;99.90;;;;;;5064256;28;20079;-54
2022/07/14 11:13:03;;;;;;;5.35;0.90;;;20.80;99.90;;;;;;5067403;28;20040;-53
2022/07/14 11:15:50;;;;;;;3.35;0.80;;;20.80;99.90;;;;;;5068970;28;20442;-54
2022/07/14 11:18:21;;;;;;;3.42;0.88;;;20.90;99.90;;;;;;5051452;28;20555;-53
2022/07/14 11:21:11;;;;;;;3.05;0.80;;;21.00;99.90;;;;;;5071004;28;20364;-54
2022/07/14 11:23:53;;;;;;;3.42;0.90;;;20.90;99.90;;;;;;5069848;28;20048;-54
2022/07/14 11:26:42;;;;;;;4.47;1.05;;;21.10;99.90;;;;;;5069254;28;20063;-53
2022/07/14 11:29:09;;;;;;;4.28;0.68;;;21.00;99.90;;;;;;5070218;28;20040;-54
2022/07/14 11:31:50;;;;;;;4.82;0.65;;;20.90;99.90;;;;;;5070429;28;20099;-54
2022/07/14 11:37:05;;;;;;;5.13;0.70;;;21.30;99.90;;;;;;5065861;28;20115;-54
2022/07/14 11:39:36;;;;;;;2.85;0.40;;;21.10;99.90;;;;;;5034850;28;20124;-53
2022/07/14 11:42:08;;;;;;;4.75;0.60;;;21.00;99.90;;;;;;5069812;28;20044;-54
2022/07/14 11:44:36;;;;;;;3.90;0.60;;;21.20;99.90;;;;;;5070772;28;20048;-52
2022/07/14 11:47:29;;;;;;;3.33;0.60;;;21.30;99.90;;;;;;5070143;28;20040;-52
2022/07/14 11:49:59;;;;;;;4.15;0.45;;;21.30;99.90;;;;;;5060410;28;20076;-55
2022/07/14 11:52:28;;;;;;;2.85;0.57;;;21.30;99.90;;;;;;5069781;28;20052;-53
2022/07/14 11:54:56;;;;;;;3.58;0.70;;;21.10;99.90;;;;;;5069478;28;20041;-53
2022/07/14 11:57:22;;;;;;;2.00;0.63;;;21.00;99.90;;;;;;5068843;28;20485;-53
2022/07/14 11:59:48;;;;;;;4.50;0.68;;;20.80;99.90;;;;;;5070373;28;20123;-54
2022/07/14 12:02:17;;;;;;;5.07;0.63;;;21.20;99.90;;;;;;5070203;28;20476;-53
2022/07/14 12:04:55;;;;;;;3.78;0.60;;;21.70;99.90;;;;;;5067473;28;20044;-52
2022/07/14 12:07:45;;;;;;;1.42;0.30;;;22.10;99.90;;;;;;5050687;28;20118;-53
2022/07/14 12:10:12;;;;;;;2.70;0.55;;;22.30;99.90;;;;;;5069053;28;20028;-54
2022/07/14 12:12:47;;;;;;;1.95;0.38;;;22.70;99.90;;;;;;5070334;28;20076;-54
2022/07/14 12:15:23;;;;;;;2.60;0.63;;;22.50;98.80;;;;;;5069410;28;20029;-54
2022/07/14 12:17:51;;;;;;;2.05;0.40;;;23.10;98.30;;;;;;5060501;28;20037;-54
2022/07/14 12:20:18;;;;;;;1.88;0.30;;;23.40;97.80;;;;;;5056492;28;20041;-54
2022/07/14 12:22:49;;;;;;;2.22;0.47;;;23.70;97.70;;;;;;5064874;28;20059;-55
2022/07/14 12:25:33;;;;;;;1.15;0.43;;;23.50;97.60;;;;;;5069936;28;20476;-54
2022/07/14 12:28:05;;;;;;;1.73;0.30;;;23.50;96.00;;;;;;5071304;28;20424;-53
2022/07/14 12:30:51;;;;;;;5.40;0.40;;;23.10;96.40;;;;;;5069215;28;20072;-54
2022/07/14 12:33:22;;;;;;;2.60;0.40;;;23.50;97.10;;;;;;5070857;28;20032;-53
2022/07/14 12:35:52;;;;;;;1.83;0.40;;;23.30;95.90;;;;;;5070250;28;20076;-54
2022/07/14 12:38:19;;;;;;;3.38;0.47;;;23.50;96.50;;;;;;5048611;28;20476;-54
2022/07/14 12:40:48;;;;;;;2.67;0.60;;;23.60;96.80;;;;;;5068177;28;20041;-52
2022/07/14 12:43:14;;;;;;;2.63;0.60;;;23.60;96.50;;;;;;5067972;28;20080;-52
2022/07/14 12:46:13;;;;;;;4.60;0.80;;;23.20;96.60;;;;;;5069899;28;20075;-52
2022/07/14 12:49:00;;;;;;;4.10;0.82;;;23.40;97.80;;;;;;5021897;28;20769;-53
2022/07/14 12:51:42;;;;;;;2.10;0.40;;;23.50;97.20;;;;;;5072340;28;20097;-54
2022/07/14 12:54:30;;;;;;;2.22;0.50;;;23.40;96.80;;;;;;5071596;28;20039;-54
2022/07/14 12:56:56;;;;;;;1.10;0.30;;;23.30;96.30;;;;;;5071971;28;20115;-51
2022/07/14 12:59:26;;;;;;;2.15;0.55;;;23.10;96.30;;;;;;5070836;28;20190;-53
2022/07/14 13:01:59;;;;;;;3.63;0.60;;;23.30;95.70;;;;;;5070720;28;20077;-51
2022/07/14 13:04:35;;;;;;;1.15;0.25;;;23.60;96.30;;;;;;5073134;28;20048;-52